Time;durP1;ratioP1;P1;durP2;ratioP2;P2;SDS_P1;SDS_P2;PMS_P1;PMS_P2;Temp;Humidity;BMP_temperature;BMP_pressure;BME280_temperature;BME280_humidity;BME280_pressure;Samples;Min_cycle;Max_cycle;Signal;HPM_P1;HPM_P2
2022/10/21 00:00:37;;;;;;;48.85;31.38;;;11.10;99.90;;;;;;4947278;29;20039;-58
2022/10/21 00:03:03;;;;;;;45.63;32.30;;;11.10;99.90;;;;;;4947467;29;20047;-58
2022/10/21 00:05:29;;;;;;;42.85;30.65;;;11.10;99.90;;;;;;4947337;29;20047;-58
2022/10/21 00:07:55;;;;;;;45.42;31.10;;;11.20;99.90;;;;;;4947290;29;20113;-57
2022/10/21 00:10:21;;;;;;;50.90;32.88;;;11.20;99.90;;;;;;4947712;29;20510;-57
2022/10/21 00:12:47;;;;;;;48.55;32.10;;;11.20;99.90;;;;;;4947778;29;20414;-58
2022/10/21 00:15:12;;;;;;;46.03;31.35;;;11.10;99.90;;;;;;4947047;29;20039;-58
2022/10/21 00:17:40;;;;;;;45.95;32.17;;;11.10;99.90;;;;;;4947270;29;20533;-57
2022/10/21 00:20:08;;;;;;;44.03;30.92;;;11.00;99.90;;;;;;4947154;29;20098;-58
2022/10/21 00:22:34;;;;;;;48.28;33.33;;;11.00;99.90;;;;;;4946892;29;20125;-58
2022/10/21 00:25:00;;;;;;;53.10;31.90;;;11.10;99.90;;;;;;4947191;29;20098;-57
2022/10/21 00:27:25;;;;;;;43.40;31.17;;;11.00;99.90;;;;;;4946985;29;20498;-57
2022/10/21 00:29:51;;;;;;;47.22;31.92;;;11.20;99.90;;;;;;4947598;29;20530;-58
2022/10/21 00:32:17;;;;;;;47.25;32.22;;;11.10;99.90;;;;;;4930345;29;20063;-58
2022/10/21 00:34:43;;;;;;;48.63;30.38;;;11.00;99.90;;;;;;4946725;29;20233;-57
2022/10/21 00:37:09;;;;;;;46.38;32.55;;;11.00;99.90;;;;;;4946793;29;20126;-58
2022/10/21 00:39:36;;;;;;;46.92;32.38;;;11.00;99.90;;;;;;4946664;29;20070;-58
2022/10/21 00:42:04;;;;;;;42.90;30.80;;;10.90;99.90;;;;;;4947034;29;20055;-58
2022/10/21 00:44:30;;;;;;;45.45;31.17;;;10.90;99.90;;;;;;4946836;29;20110;-59
2022/10/21 00:47:19;;;;;;;44.88;30.98;;;10.90;99.90;;;;;;4946769;29;20036;-58
2022/10/21 00:50:00;;;;;;;48.72;31.05;;;11.10;99.90;;;;;;4946111;29;20062;-58
2022/10/21 00:52:28;;;;;;;41.15;29.67;;;10.90;99.90;;;;;;4946574;29;20814;-58
2022/10/21 00:54:56;;;;;;;41.58;29.17;;;10.90;99.90;;;;;;4947815;29;20075;-57
2022/10/21 00:57:24;;;;;;;45.63;30.17;;;10.90;99.90;;;;;;4946603;29;20055;-58
2022/10/21 00:59:53;;;;;;;46.08;30.92;;;11.00;99.90;;;;;;4947178;29;20085;-58
2022/10/21 01:02:19;;;;;;;42.88;29.95;;;11.00;99.90;;;;;;4946959;29;20130;-58
2022/10/21 01:04:46;;;;;;;41.78;29.52;;;10.80;99.90;;;;;;4945696;28;20130;-58
2022/10/21 01:07:12;;;;;;;44.25;29.52;;;11.10;99.90;;;;;;4945275;29;20086;-58
2022/10/21 01:09:37;;;;;;;44.55;29.75;;;10.80;99.90;;;;;;4946005;29;20043;-58
2022/10/21 01:12:11;;;;;;;44.88;29.95;;;11.00;99.90;;;;;;4945321;29;20047;-56
2022/10/21 01:15:02;;;;;;;46.08;30.17;;;11.00;99.90;;;;;;4946639;29;20119;-58
2022/10/21 01:17:49;;;;;;;52.75;32.30;;;10.90;99.90;;;;;;4946057;29;20055;-58
2022/10/21 01:20:32;;;;;;;47.92;32.72;;;10.80;99.90;;;;;;4945648;29;20139;-58
2022/10/21 01:23:09;;;;;;;48.92;31.88;;;10.80;99.90;;;;;;4928231;29;20098;-58
2022/10/21 01:25:38;;;;;;;49.03;31.20;;;10.90;99.90;;;;;;4945505;29;20054;-57
2022/10/21 01:28:18;;;;;;;46.38;30.08;;;10.80;99.90;;;;;;4945340;29;20122;-57
2022/10/21 01:31:02;;;;;;;44.15;28.42;;;10.80;99.90;;;;;;4945728;29;20047;-57
2022/10/21 01:33:40;;;;;;;44.17;28.88;;;10.90;99.90;;;;;;4945300;29;20047;-56
2022/10/21 01:36:12;;;;;;;41.00;27.95;;;10.80;99.90;;;;;;4945305;29;20054;-57
2022/10/21 01:39:00;;;;;;;42.20;28.60;;;10.80;99.90;;;;;;4945988;29;20043;-58
2022/10/21 01:41:34;;;;;;;41.08;28.13;;;10.80;99.90;;;;;;4928892;29;20399;-58
2022/10/21 01:44:19;;;;;;;46.10;29.80;;;11.00;99.90;;;;;;4946569;29;20051;-56
2022/10/21 01:46:56;;;;;;;44.85;28.25;;;10.80;99.90;;;;;;4945414;29;20478;-58
2022/10/21 01:49:29;;;;;;;43.22;30.10;;;10.80;99.90;;;;;;4945895;29;20434;-56
2022/10/21 01:51:55;;;;;;;41.65;29.73;;;10.80;99.90;;;;;;4945738;29;20406;-58
2022/10/21 01:54:26;;;;;;;46.10;31.83;;;10.70;99.90;;;;;;4944696;29;20062;-58
2022/10/21 01:56:54;;;;;;;46.13;28.95;;;10.80;99.90;;;;;;4928977;29;20046;-57
2022/10/21 01:59:22;;;;;;;44.45;30.52;;;10.90;99.90;;;;;;4945087;29;20054;-58
2022/10/21 02:01:50;;;;;;;40.35;28.67;;;10.90;99.90;;;;;;4945658;29;20043;-58
2022/10/21 02:04:17;;;;;;;42.63;28.23;;;10.80;99.90;;;;;;4944263;29;20102;-57
2022/10/21 02:06:43;;;;;;;41.78;29.02;;;11.00;99.90;;;;;;4944648;29;20640;-57
2022/10/21 02:09:09;;;;;;;42.20;28.17;;;10.80;99.90;;;;;;4945431;29;20127;-58
2022/10/21 02:11:37;;;;;;;39.78;28.30;;;11.00;99.90;;;;;;4929135;29;20135;-58
2022/10/21 02:14:11;;;;;;;40.28;27.60;;;10.90;99.90;;;;;;4945316;29;20098;-57
2022/10/21 02:16:38;;;;;;;39.65;27.75;;;11.10;99.90;;;;;;4945569;28;20047;-57
2022/10/21 02:19:23;;;;;;;39.63;27.05;;;11.00;99.90;;;;;;4945122;29;20451;-57
2022/10/21 02:21:52;;;;;;;35.20;25.25;;;11.10;99.90;;;;;;4945156;29;20059;-57
2022/10/21 02:24:50;;;;;;;38.22;26.10;;;11.10;99.90;;;;;;4944591;29;20121;-57
2022/10/21 02:27:16;;;;;;;39.47;28.00;;;11.00;99.90;;;;;;4944693;29;20051;-58
2022/10/21 02:29:45;;;;;;;38.95;27.13;;;11.00;99.90;;;;;;4945203;29;20047;-57
2022/10/21 02:32:41;;;;;;;42.53;28.35;;;11.00;99.90;;;;;;4927204;29;20090;-57
2022/10/21 02:35:29;;;;;;;39.75;27.90;;;11.00;99.90;;;;;;4944679;29;20134;-57
2022/10/21 02:38:02;;;;;;;40.20;28.00;;;11.10;99.90;;;;;;4943640;29;20673;-57
2022/10/21 02:40:36;;;;;;;40.67;28.08;;;11.30;99.90;;;;;;4945001;29;20487;-56
2022/10/21 02:43:33;;;;;;;35.58;24.73;;;11.30;99.90;;;;;;4964368;28;20112;-56
2022/10/21 02:46:04;;;;;;;39.22;25.98;;;11.20;99.90;;;;;;4952839;28;20517;-55
2022/10/21 02:48:32;;;;;;;33.38;24.45;;;11.30;99.90;;;;;;4964722;28;20070;-57
2022/10/21 02:50:59;;;;;;;38.83;25.63;;;11.40;99.90;;;;;;4931336;28;20078;-57
2022/10/21 02:53:25;;;;;;;36.67;25.10;;;11.40;99.90;;;;;;4963713;28;20472;-58
2022/10/21 02:55:50;;;;;;;36.40;25.33;;;11.20;99.90;;;;;;4962781;28;20070;-57
2022/10/21 02:58:16;;;;;;;39.50;25.77;;;11.50;99.90;;;;;;4963230;28;20541;-57
2022/10/21 03:00:42;;;;;;;37.28;26.58;;;11.40;99.90;;;;;;4963506;28;20117;-57
2022/10/21 03:03:07;;;;;;;34.33;25.00;;;11.40;99.90;;;;;;4963276;28;20046;-58
2022/10/21 03:05:33;;;;;;;33.72;23.58;;;11.60;99.90;;;;;;4952168;28;20047;-58
2022/10/21 03:07:59;;;;;;;45.00;25.70;;;11.50;99.90;;;;;;4943831;29;20376;-56
2022/10/21 03:10:24;;;;;;;35.10;23.92;;;11.60;99.90;;;;;;4943684;29;20054;-56
2022/10/21 03:12:50;;;;;;;37.08;25.67;;;11.70;99.90;;;;;;4943212;29;20039;-58
2022/10/21 03:15:16;;;;;;;36.80;24.67;;;11.80;99.90;;;;;;4943238;29;20048;-56
2022/10/21 03:17:42;;;;;;;45.75;27.38;;;11.60;99.90;;;;;;4943972;29;20415;-58
2022/10/21 03:20:08;;;;;;;37.38;25.05;;;11.80;99.90;;;;;;4943672;29;20052;-57
2022/10/21 03:22:33;;;;;;;39.38;26.83;;;11.80;99.90;;;;;;4943170;29;21068;-57
2022/10/21 03:24:59;;;;;;;43.53;27.83;;;11.80;99.90;;;;;;4945028;29;20044;-58
2022/10/21 03:27:26;;;;;;;39.83;27.45;;;11.70;99.90;;;;;;4944226;29;20043;-58
2022/10/21 03:29:51;;;;;;;45.92;28.88;;;11.80;99.90;;;;;;4946750;28;20051;-57
2022/10/21 03:32:17;;;;;;;47.05;29.05;;;11.90;99.90;;;;;;4930664;29;20533;-58
2022/10/21 03:34:43;;;;;;;51.85;28.63;;;11.80;99.90;;;;;;4948308;29;20035;-57
2022/10/21 03:37:08;;;;;;;50.35;29.20;;;11.80;99.90;;;;;;4947212;29;20386;-58
2022/10/21 03:39:34;;;;;;;47.85;29.17;;;11.80;99.90;;;;;;4947315;29;20053;-58
2022/10/21 03:42:00;;;;;;;48.33;28.92;;;11.70;99.90;;;;;;4948459;29;20047;-56
2022/10/21 03:44:25;;;;;;;51.65;29.17;;;11.80;99.90;;;;;;4948229;29;20055;-57
2022/10/21 03:46:51;;;;;;;47.35;29.52;;;11.70;99.90;;;;;;4947739;29;20142;-58
2022/10/21 03:49:17;;;;;;;49.33;29.85;;;11.80;99.90;;;;;;4947300;29;20451;-57
2022/10/21 03:51:42;;;;;;;43.58;26.80;;;11.80;99.90;;;;;;4914941;29;20518;-57
2022/10/21 03:54:08;;;;;;;49.30;29.15;;;11.70;99.90;;;;;;4947061;29;20065;-57
2022/10/21 03:56:34;;;;;;;50.08;28.45;;;11.90;99.90;;;;;;4947961;29;20062;-56
2022/10/21 03:58:59;;;;;;;47.22;28.40;;;11.90;99.90;;;;;;4930349;29;20074;-57
2022/10/21 04:01:25;;;;;;;47.70;27.70;;;11.80;99.90;;;;;;4947190;29;20047;-57
2022/10/21 04:03:51;;;;;;;50.92;30.42;;;11.80;99.90;;;;;;4947465;29;20083;-55
2022/10/21 04:06:17;;;;;;;48.97;29.67;;;11.80;99.90;;;;;;4945731;28;20067;-58
2022/10/21 04:08:42;;;;;;;54.08;31.13;;;11.90;99.90;;;;;;4946948;29;20138;-57
2022/10/21 04:11:08;;;;;;;56.65;31.10;;;11.90;99.90;;;;;;4947140;29;20051;-58
2022/10/21 04:13:34;;;;;;;53.38;32.72;;;12.00;99.90;;;;;;4947119;29;20165;-58
2022/10/21 04:16:02;;;;;;;56.60;31.85;;;11.90;99.90;;;;;;4947820;29;20043;-57
2022/10/21 04:18:28;;;;;;;49.65;29.90;;;12.00;99.90;;;;;;4947547;29;20098;-57
2022/10/21 04:20:54;;;;;;;53.75;30.88;;;12.00;99.90;;;;;;4948188;29;20395;-57
2022/10/21 04:23:19;;;;;;;44.83;28.40;;;11.90;99.90;;;;;;4945193;29;20055;-57
2022/10/21 04:25:45;;;;;;;48.38;30.10;;;12.00;99.90;;;;;;4946588;29;20047;-56
2022/10/21 04:28:11;;;;;;;48.25;29.05;;;12.00;99.90;;;;;;4946513;29;20055;-58
2022/10/21 04:30:37;;;;;;;42.53;29.48;;;12.00;99.90;;;;;;4946866;29;20048;-58
2022/10/21 04:33:02;;;;;;;47.47;28.42;;;11.90;99.90;;;;;;4928761;29;20051;-57
2022/10/21 04:35:28;;;;;;;48.05;29.17;;;11.80;99.90;;;;;;4947212;29;20039;-56
2022/10/21 04:37:54;;;;;;;45.70;29.02;;;11.90;99.90;;;;;;4929734;29;20055;-58
2022/10/21 04:40:20;;;;;;;48.75;29.90;;;11.80;99.90;;;;;;4945823;28;20082;-58
2022/10/21 04:42:49;;;;;;;48.17;28.95;;;11.90;99.90;;;;;;4929058;29;20078;-58
2022/10/21 04:45:16;;;;;;;48.15;29.33;;;11.90;99.90;;;;;;4947211;29;20420;-58
2022/10/21 04:47:41;;;;;;;47.53;29.38;;;11.80;99.90;;;;;;4947717;29;20599;-58
2022/10/21 04:50:07;;;;;;;48.95;29.00;;;11.90;99.90;;;;;;4945830;29;20039;-58
2022/10/21 04:52:33;;;;;;;55.47;30.48;;;11.90;99.90;;;;;;4946066;29;20047;-58
2022/10/21 04:54:59;;;;;;;50.15;29.35;;;11.70;99.90;;;;;;4947203;29;20046;-56
2022/10/21 04:57:24;;;;;;;56.33;29.98;;;11.70;99.90;;;;;;4946182;29;20051;-58
2022/10/21 04:59:50;;;;;;;49.55;29.15;;;11.70;99.90;;;;;;4946251;29;20411;-58
2022/10/21 05:02:16;;;;;;;49.47;28.88;;;11.70;99.90;;;;;;4946999;29;20422;-58
2022/10/21 05:04:41;;;;;;;48.08;26.95;;;11.70;99.90;;;;;;4946624;28;20117;-58
2022/10/21 05:07:07;;;;;;;41.42;25.90;;;11.70;99.90;;;;;;4945422;29;20062;-58
2022/10/21 05:09:33;;;;;;;40.53;25.52;;;11.70;99.90;;;;;;4946323;29;20050;-58
2022/10/21 05:11:59;;;;;;;39.10;25.67;;;11.70;99.90;;;;;;4946166;29;20047;-57
2022/10/21 05:14:25;;;;;;;42.25;25.55;;;11.80;99.90;;;;;;4929286;29;20043;-57
2022/10/21 05:16:50;;;;;;;40.90;25.52;;;11.70;99.90;;;;;;4945189;29;20050;-57
2022/10/21 05:19:16;;;;;;;38.17;24.73;;;11.60;99.90;;;;;;4945447;29;20517;-57
2022/10/21 05:21:42;;;;;;;41.70;26.67;;;11.70;99.90;;;;;;4946345;29;20062;-58
2022/10/21 05:24:08;;;;;;;39.45;25.80;;;11.70;99.90;;;;;;4946076;29;20573;-58
2022/10/21 05:26:34;;;;;;;42.63;27.38;;;11.70;99.90;;;;;;4946199;29;20069;-56
2022/10/21 05:29:00;;;;;;;44.75;26.65;;;11.50;99.90;;;;;;4946915;29;20136;-58
2022/10/21 05:31:25;;;;;;;42.70;27.48;;;11.70;99.90;;;;;;4946152;29;20047;-58
2022/10/21 05:33:51;;;;;;;50.00;26.98;;;11.70;99.90;;;;;;4945293;29;20047;-58
2022/10/21 05:36:17;;;;;;;49.55;27.55;;;11.70;99.90;;;;;;4928328;29;20074;-57
2022/10/21 05:38:42;;;;;;;49.67;27.23;;;11.50;99.90;;;;;;4945095;29;20117;-58
2022/10/21 05:41:09;;;;;;;46.03;27.60;;;11.60;99.90;;;;;;4945614;29;20039;-58
2022/10/21 05:43:36;;;;;;;48.83;28.75;;;11.60;99.90;;;;;;4945311;29;20118;-58
2022/10/21 05:46:03;;;;;;;51.70;28.40;;;11.40;99.90;;;;;;4945536;29;20050;-57
2022/10/21 05:48:28;;;;;;;59.15;30.48;;;11.50;99.90;;;;;;4945977;29;20082;-58
2022/10/21 05:50:55;;;;;;;48.15;30.20;;;11.50;99.90;;;;;;4945123;28;20106;-58
2022/10/21 05:53:25;;;;;;;47.70;30.17;;;11.50;99.90;;;;;;4944516;29;20051;-56
2022/10/21 05:56:10;;;;;;;55.10;31.27;;;11.50;99.90;;;;;;4945081;29;20470;-58
2022/10/21 05:58:35;;;;;;;47.17;29.55;;;11.40;99.90;;;;;;4945022;29;20417;-57
2022/10/21 06:01:01;;;;;;;47.67;29.30;;;11.50;99.90;;;;;;4928345;29;20039;-56
2022/10/21 06:03:29;;;;;;;49.25;29.02;;;11.40;99.90;;;;;;4945318;29;20076;-58
2022/10/21 06:06:01;;;;;;;45.00;27.83;;;11.50;99.90;;;;;;4944006;28;20047;-58
2022/10/21 06:08:28;;;;;;;45.30;28.23;;;11.30;99.90;;;;;;4944778;29;20079;-57
2022/10/21 06:11:06;;;;;;;52.25;28.20;;;11.50;99.90;;;;;;4945115;29;20058;-57
2022/10/21 06:13:32;;;;;;;46.20;26.85;;;11.40;99.90;;;;;;4945012;29;20058;-57
2022/10/21 06:15:58;;;;;;;45.75;27.58;;;11.40;99.90;;;;;;4945724;29;20238;-58
2022/10/21 06:18:24;;;;;;;50.17;28.20;;;11.40;99.90;;;;;;4945145;29;20051;-56
2022/10/21 06:20:50;;;;;;;50.55;28.83;;;11.30;99.90;;;;;;4944496;29;20046;-57
2022/10/21 06:23:15;;;;;;;47.42;28.30;;;11.50;99.90;;;;;;4944668;29;20498;-58
2022/10/21 06:25:42;;;;;;;55.20;28.80;;;11.30;99.90;;;;;;4944157;29;20134;-60
2022/10/21 06:28:08;;;;;;;51.97;28.10;;;11.40;99.90;;;;;;4945921;29;20054;-58
2022/10/21 06:30:34;;;;;;;56.83;30.05;;;11.30;99.90;;;;;;4945202;29;20047;-58
2022/10/21 06:32:59;;;;;;;47.38;28.75;;;11.30;99.90;;;;;;4945575;29;20039;-58
2022/10/21 06:35:25;;;;;;;46.90;26.95;;;11.40;99.90;;;;;;4945091;29;20660;-58
2022/10/21 06:37:51;;;;;;;48.53;27.60;;;11.50;99.90;;;;;;4944418;29;20773;-58
2022/10/21 06:40:16;;;;;;;46.05;27.70;;;11.50;99.90;;;;;;4943959;29;20486;-58
2022/10/21 06:42:42;;;;;;;45.28;27.17;;;11.40;99.90;;;;;;4944984;29;20039;-57
2022/10/21 06:45:08;;;;;;;39.42;25.75;;;11.30;99.90;;;;;;4944834;29;20047;-58
2022/10/21 06:47:34;;;;;;;47.22;27.67;;;11.40;99.90;;;;;;4945590;29;20741;-57
2022/10/21 06:50:01;;;;;;;45.88;26.90;;;11.50;99.90;;;;;;4945267;29;20130;-57
2022/10/21 06:52:31;;;;;;;43.42;26.40;;;11.40;99.90;;;;;;4927713;29;20054;-57
2022/10/21 06:54:56;;;;;;;42.75;27.05;;;11.50;99.90;;;;;;4945389;29;20035;-55
2022/10/21 06:57:22;;;;;;;47.55;27.52;;;11.40;99.90;;;;;;4943905;29;20047;-57
2022/10/21 06:59:48;;;;;;;41.58;27.92;;;11.50;99.90;;;;;;4944188;29;20043;-57
2022/10/21 07:02:13;;;;;;;44.33;27.58;;;11.70;99.90;;;;;;4944579;29;20135;-57
2022/10/21 07:04:43;;;;;;;38.75;25.98;;;11.50;99.90;;;;;;4946232;28;20043;-57
2022/10/21 07:07:08;;;;;;;45.20;26.67;;;11.60;99.90;;;;;;4947633;29;20114;-57
2022/10/21 07:09:34;;;;;;;42.83;26.02;;;11.60;99.90;;;;;;4948092;29;20125;-57
2022/10/21 07:12:00;;;;;;;41.03;26.67;;;11.70;99.90;;;;;;4945419;29;20175;-56
2022/10/21 07:14:26;;;;;;;40.70;26.45;;;11.80;99.90;;;;;;4947132;29;20700;-57
2022/10/21 07:16:52;;;;;;;41.65;27.13;;;11.60;99.90;;;;;;4948244;29;20043;-58
2022/10/21 07:19:18;;;;;;;38.80;25.65;;;11.60;99.90;;;;;;4947673;29;20082;-57
2022/10/21 07:21:45;;;;;;;42.83;26.00;;;11.70;99.90;;;;;;4947495;29;20087;-56
2022/10/21 07:24:11;;;;;;;41.30;26.52;;;11.70;99.90;;;;;;4948054;29;20050;-57
2022/10/21 07:26:37;;;;;;;41.40;26.60;;;11.80;99.90;;;;;;4948565;29;20066;-56
2022/10/21 07:29:04;;;;;;;39.65;25.33;;;11.70;99.90;;;;;;4947910;29;20047;-57
2022/10/21 07:31:35;;;;;;;39.53;27.67;;;11.80;99.90;;;;;;4947360;29;20039;-56
2022/10/21 07:34:02;;;;;;;39.88;26.40;;;11.70;99.90;;;;;;4947664;29;20035;-57
2022/10/21 07:36:32;;;;;;;40.40;26.55;;;11.80;99.90;;;;;;4947641;29;20048;-57
2022/10/21 07:39:01;;;;;;;40.25;26.25;;;11.80;99.90;;;;;;4930621;29;20439;-57
2022/10/21 07:41:37;;;;;;;36.85;26.52;;;11.80;99.90;;;;;;4948520;29;20094;-56
2022/10/21 07:44:04;;;;;;;39.60;25.83;;;12.00;99.90;;;;;;4947715;29;20043;-57
2022/10/21 07:46:30;;;;;;;36.85;25.63;;;12.10;99.90;;;;;;4930500;29;20446;-57
2022/10/21 07:48:56;;;;;;;39.38;25.05;;;12.00;99.90;;;;;;4947358;29;20035;-57
2022/10/21 07:51:24;;;;;;;34.85;25.50;;;12.00;99.90;;;;;;4947520;29;20192;-57
2022/10/21 07:53:52;;;;;;;36.88;25.08;;;12.20;99.90;;;;;;4947540;29;20403;-57
2022/10/21 07:56:25;;;;;;;41.50;25.80;;;12.20;99.90;;;;;;4947293;29;20055;-57
2022/10/21 07:58:51;;;;;;;39.95;25.05;;;12.20;99.90;;;;;;4947049;29;20625;-57
2022/10/21 08:01:19;;;;;;;37.35;24.55;;;12.10;99.90;;;;;;4947050;29;20054;-57
2022/10/21 08:03:45;;;;;;;38.92;26.05;;;12.20;99.90;;;;;;4947921;29;20078;-56
2022/10/21 08:06:13;;;;;;;40.00;26.92;;;12.40;99.90;;;;;;4950613;28;20111;-58
2022/10/21 08:08:39;;;;;;;37.22;25.40;;;12.20;99.90;;;;;;4946636;29;20514;-57
2022/10/21 08:11:05;;;;;;;38.10;26.10;;;12.30;99.90;;;;;;4945854;29;20054;-56
2022/10/21 08:13:30;;;;;;;34.28;25.73;;;12.50;99.90;;;;;;4948102;29;20144;-58
2022/10/21 08:15:57;;;;;;;32.78;23.90;;;12.40;99.90;;;;;;4929563;29;20046;-57
2022/10/21 08:18:24;;;;;;;32.25;21.60;;;12.60;99.90;;;;;;4947567;29;20159;-58
2022/10/21 08:20:51;;;;;;;32.80;22.75;;;12.70;99.90;;;;;;4947098;29;20051;-58
2022/10/21 08:23:18;;;;;;;32.35;22.23;;;12.80;99.90;;;;;;4946631;29;20134;-57
2022/10/21 08:25:54;;;;;;;33.30;23.00;;;13.00;99.90;;;;;;4947332;29;20635;-57
2022/10/21 08:28:22;;;;;;;33.00;23.52;;;13.00;99.90;;;;;;4929839;29;20091;-57
2022/10/21 08:30:47;;;;;;;29.25;22.10;;;13.10;99.90;;;;;;4947300;29;20061;-58
2022/10/21 08:33:14;;;;;;;32.58;22.90;;;13.30;99.90;;;;;;4938013;29;20413;-57
2022/10/21 08:35:40;;;;;;;32.40;22.00;;;13.30;99.90;;;;;;4945947;29;20109;-58
2022/10/21 08:38:07;;;;;;;23.17;19.23;;;13.40;99.90;;;;;;4936311;29;20434;-58
2022/10/21 08:40:43;;;;;;;29.98;20.20;;;13.60;99.90;;;;;;4946325;29;20216;-59
2022/10/21 08:43:22;;;;;;;27.23;18.98;;;13.50;99.90;;;;;;4926737;29;20051;-57
2022/10/21 08:45:54;;;;;;;27.90;19.20;;;13.60;99.90;;;;;;4946685;29;20039;-58
2022/10/21 08:48:32;;;;;;;25.13;18.92;;;13.80;99.90;;;;;;4946219;29;20050;-57
2022/10/21 08:50:59;;;;;;;25.40;19.98;;;13.70;99.90;;;;;;4945164;29;20134;-57
2022/10/21 08:53:43;;;;;;;25.08;17.80;;;13.70;99.90;;;;;;4947018;29;20470;-56
2022/10/21 08:56:12;;;;;;;23.60;18.02;;;13.90;99.90;;;;;;4946510;29;20039;-57
2022/10/21 08:58:38;;;;;;;24.92;18.95;;;13.90;99.90;;;;;;4946334;29;20055;-57
2022/10/21 09:01:36;;;;;;;26.80;19.25;;;13.90;99.90;;;;;;4946277;29;20035;-56
2022/10/21 09:04:28;;;;;;;27.45;18.90;;;13.90;99.90;;;;;;4926501;29;20070;-56
2022/10/21 09:06:56;;;;;;;24.23;18.20;;;13.90;99.90;;;;;;4943105;29;20583;-59
2022/10/21 09:09:35;;;;;;;24.33;18.08;;;13.90;99.90;;;;;;4945721;29;20043;-57
2022/10/21 09:12:33;;;;;;;24.85;18.48;;;14.00;99.90;;;;;;4945973;29;20102;-57
2022/10/21 09:15:22;;;;;;;23.25;17.98;;;14.00;99.90;;;;;;4945066;29;20126;-57
2022/10/21 09:18:06;;;;;;;25.25;17.45;;;14.00;99.90;;;;;;4945875;29;20428;-58
2022/10/21 09:20:41;;;;;;;23.25;17.40;;;14.10;99.90;;;;;;4945311;29;20083;-56
2022/10/21 09:23:25;;;;;;;24.15;18.13;;;14.40;99.90;;;;;;4945618;29;20141;-57
2022/10/21 09:26:01;;;;;;;21.25;17.13;;;14.60;99.90;;;;;;4944705;28;20089;-58
2022/10/21 09:28:29;;;;;;;22.60;15.93;;;14.80;99.90;;;;;;4946231;29;20043;-57
2022/10/21 09:30:57;;;;;;;19.48;16.42;;;14.90;99.90;;;;;;4945711;29;20051;-58
2022/10/21 09:33:28;;;;;;;21.50;16.10;;;15.10;99.90;;;;;;4944902;29;20213;-58
2022/10/21 09:36:26;;;;;;;21.17;14.90;;;15.60;99.90;;;;;;4945231;29;20067;-58
2022/10/21 09:38:59;;;;;;;19.52;14.27;;;15.30;99.90;;;;;;4941817;29;20057;-58
2022/10/21 09:41:41;;;;;;;17.63;13.85;;;15.50;99.90;;;;;;4945997;29;20090;-58
2022/10/21 09:44:21;;;;;;;19.58;14.27;;;15.70;99.90;;;;;;4945106;29;20047;-57
2022/10/21 09:46:48;;;;;;;16.80;12.43;;;15.90;99.90;;;;;;4945429;29;20036;-58
2022/10/21 09:49:28;;;;;;;16.45;12.88;;;16.20;99.90;;;;;;4945159;29;20446;-57
2022/10/21 09:51:54;;;;;;;15.27;12.40;;;16.00;99.90;;;;;;4943509;29;20047;-58
2022/10/21 09:54:23;;;;;;;11.32;7.78;;;16.10;99.90;;;;;;4938830;28;20051;-58
2022/10/21 09:57:08;;;;;;;16.67;10.18;;;15.70;99.90;;;;;;4945044;29;20086;-56
2022/10/21 09:59:36;;;;;;;15.45;11.68;;;16.00;99.90;;;;;;4938635;29;20442;-58
2022/10/21 10:02:06;;;;;;;13.60;10.05;;;16.20;99.90;;;;;;4946330;29;20102;-57
2022/10/21 10:04:33;;;;;;;15.38;11.57;;;16.20;99.90;;;;;;4946028;28;20055;-57
2022/10/21 10:07:20;;;;;;;16.10;11.38;;;16.80;99.90;;;;;;4946020;29;20058;-57
2022/10/21 10:09:47;;;;;;;19.58;11.55;;;16.70;99.90;;;;;;4934861;29;20059;-57
2022/10/21 10:12:19;;;;;;;14.63;10.77;;;17.00;99.90;;;;;;4945850;29;20047;-58
2022/10/21 10:14:45;;;;;;;17.08;11.07;;;16.70;99.90;;;;;;4945934;29;20110;-58
2022/10/21 10:17:23;;;;;;;17.02;11.32;;;16.70;99.90;;;;;;4944999;29;20058;-58
2022/10/21 10:20:04;;;;;;;14.98;11.00;;;17.00;99.90;;;;;;4945891;29;20059;-58
2022/10/21 10:22:31;;;;;;;20.15;10.65;;;17.10;99.90;;;;;;4927742;29;20138;-59
2022/10/21 10:25:17;;;;;;;13.90;10.55;;;16.80;99.90;;;;;;4945795;29;20062;-66
2022/10/21 10:27:54;;;;;;;17.17;10.50;;;16.90;99.90;;;;;;4945687;29;20153;-67
2022/10/21 10:30:22;;;;;;;15.55;10.98;;;16.90;99.90;;;;;;4945521;29;20130;-67
2022/10/21 10:32:51;;;;;;;13.32;9.70;;;16.60;99.90;;;;;;4945381;29;20138;-66
2022/10/21 10:35:25;;;;;;;15.82;11.02;;;16.50;99.90;;;;;;4944023;29;20062;-66
2022/10/21 10:37:51;;;;;;;14.27;8.73;;;16.60;99.90;;;;;;4945791;28;20055;-66
2022/10/21 10:40:24;;;;;;;13.65;10.60;;;16.50;99.90;;;;;;4945331;29;20731;-67
2022/10/21 10:42:57;;;;;;;17.55;10.45;;;16.30;99.90;;;;;;4944651;29;20039;-67
2022/10/21 10:45:23;;;;;;;14.48;10.98;;;16.20;99.90;;;;;;4945372;29;20043;-67
2022/10/21 10:47:56;;;;;;;12.55;7.70;;;16.10;99.90;;;;;;4945553;29;20509;-67
2022/10/21 10:50:51;;;;;;;12.02;9.43;;;16.10;99.90;;;;;;4943620;29;20054;-67
2022/10/21 10:53:33;;;;;;;12.25;8.93;;;15.90;99.90;;;;;;4936562;29;20398;-67
2022/10/21 10:56:18;;;;;;;16.70;10.35;;;16.00;99.90;;;;;;4945648;29;20047;-67
2022/10/21 10:58:58;;;;;;;14.98;10.77;;;16.10;99.90;;;;;;4944410;29;20051;-67
2022/10/21 11:01:31;;;;;;;13.40;7.47;;;16.00;99.90;;;;;;4945207;29;20157;-67
2022/10/21 11:04:06;;;;;;;15.65;9.80;;;16.00;99.90;;;;;;4945047;29;20508;-67
2022/10/21 11:06:38;;;;;;;16.75;10.82;;;16.10;99.90;;;;;;4944048;28;20466;-67
2022/10/21 11:09:06;;;;;;;16.58;10.95;;;16.00;99.90;;;;;;4944794;29;20047;-67
2022/10/21 11:11:37;;;;;;;19.33;9.70;;;16.00;99.90;;;;;;4927108;29;20111;-68
2022/10/21 11:14:02;;;;;;;12.85;8.82;;;15.90;99.90;;;;;;4944640;29;20051;-68
2022/10/21 11:16:46;;;;;;;16.27;9.60;;;16.10;99.90;;;;;;4927811;29;20142;-67
2022/10/21 11:19:27;;;;;;;15.45;10.40;;;16.00;99.90;;;;;;4943881;29;20043;-67
2022/10/21 11:22:02;;;;;;;16.38;10.20;;;16.00;99.90;;;;;;4943549;29;20562;-67
2022/10/21 11:25:01;;;;;;;19.27;9.77;;;16.20;99.90;;;;;;4943864;29;20503;-67
2022/10/21 11:27:35;;;;;;;16.90;9.63;;;16.00;99.90;;;;;;4945134;29;20052;-67
2022/10/21 11:30:09;;;;;;;15.73;10.30;;;16.10;99.90;;;;;;4928030;29;20759;-67
2022/10/21 11:32:44;;;;;;;19.30;9.65;;;16.10;99.90;;;;;;4927338;29;20051;-68
2022/10/21 11:35:32;;;;;;;14.55;10.25;;;15.90;99.90;;;;;;4925357;29;20561;-67
2022/10/21 11:38:08;;;;;;;15.63;9.40;;;16.10;99.90;;;;;;4945106;29;20451;-67
2022/10/21 11:41:18;;;;;;;16.45;9.40;;;16.20;99.90;;;;;;4943965;29;20102;-68
2022/10/21 11:43:44;;;;;;;13.32;9.35;;;15.90;99.90;;;;;;4941380;29;20434;-67
2022/10/21 11:46:22;;;;;;;9.38;4.47;;;16.10;99.90;;;;;;4927135;29;20071;-67
2022/10/21 11:48:55;;;;;;;15.10;9.65;;;16.00;99.90;;;;;;4927276;28;20434;-67
2022/10/21 11:51:32;;;;;;;12.82;9.25;;;16.10;99.90;;;;;;4946429;29;20348;-67
2022/10/21 11:54:26;;;;;;;13.60;9.50;;;16.20;99.90;;;;;;4948454;29;20183;-67
2022/10/21 11:57:15;;;;;;;13.68;9.15;;;16.10;99.90;;;;;;4948382;29;21138;-67
2022/10/21 11:59:53;;;;;;;14.38;8.90;;;16.20;99.90;;;;;;4947619;29;20086;-67
2022/10/21 12:02:24;;;;;;;12.88;7.93;;;16.20;99.90;;;;;;4947088;29;20078;-67
2022/10/21 12:05:27;;;;;;;12.18;8.10;;;16.30;99.90;;;;;;4946746;28;20046;-67
2022/10/21 12:08:23;;;;;;;15.27;9.40;;;16.20;99.90;;;;;;4941167;29;20054;-67
2022/10/21 12:11:13;;;;;;;15.35;8.75;;;16.40;99.90;;;;;;4931098;29;20066;-67
2022/10/21 12:14:15;;;;;;;12.63;9.88;;;16.30;99.90;;;;;;4947081;29;20051;-67
2022/10/21 12:16:42;;;;;;;16.55;10.27;;;16.30;99.90;;;;;;4933843;29;20051;-67
2022/10/21 12:19:12;;;;;;;13.88;9.32;;;16.30;99.90;;;;;;4947270;29;20049;-67
2022/10/21 12:21:42;;;;;;;13.30;9.40;;;16.40;99.90;;;;;;4946481;29;20058;-67
2022/10/21 12:24:26;;;;;;;14.98;9.70;;;16.30;99.90;;;;;;4945745;29;20048;-67
2022/10/21 12:26:58;;;;;;;17.55;10.32;;;16.10;99.90;;;;;;4946413;29;20094;-67
2022/10/21 12:29:29;;;;;;;13.00;9.68;;;16.10;99.90;;;;;;4945731;29;20130;-67
2022/10/21 12:32:21;;;;;;;11.98;9.98;;;16.20;99.90;;;;;;4928572;29;20134;-67
2022/10/21 12:34:47;;;;;;;16.13;10.63;;;16.30;99.90;;;;;;4945065;29;20050;-67
2022/10/21 12:37:44;;;;;;;13.55;9.23;;;16.40;99.90;;;;;;4945619;29;20058;-67
2022/10/21 12:40:11;;;;;;;14.80;10.15;;;16.20;99.90;;;;;;4914295;29;20176;-67
2022/10/21 12:42:47;;;;;;;14.88;10.15;;;16.20;99.90;;;;;;4946222;29;20079;-67
2022/10/21 12:45:33;;;;;;;17.55;10.23;;;16.40;99.90;;;;;;4928716;29;20727;-67
2022/10/21 12:48:04;;;;;;;13.95;8.52;;;16.20;99.90;;;;;;4946161;29;20135;-67